Time;durP1;ratioP1;P1;durP2;ratioP2;P2;SDS_P1;SDS_P2;PMS_P1;PMS_P2;Temp;Humidity;BMP_temperature;BMP_pressure;BME280_temperature;BME280_humidity;BME280_pressure;Samples;Min_cycle;Max_cycle;Signal;HPM_P1;HPM_P2
2023/07/17 00:02:16;;;;;;;6.07;5.47;;;21.40;94.20;;;;;;5031501;28;20202;-59
2023/07/17 00:04:41;;;;;;;6.03;5.43;;;21.30;94.10;;;;;;5031823;28;20293;-61
2023/07/17 00:07:07;;;;;;;6.53;5.63;;;21.20;94.90;;;;;;5031964;28;20175;-60
2023/07/17 00:09:33;;;;;;;6.10;5.60;;;21.20;94.20;;;;;;5031092;28;20170;-61
2023/07/17 00:11:58;;;;;;;5.47;5.00;;;21.30;93.90;;;;;;5031640;28;20665;-61
2023/07/17 00:14:24;;;;;;;5.97;5.43;;;21.30;93.80;;;;;;5030918;28;20190;-60
2023/07/17 00:16:50;;;;;;;6.47;5.90;;;21.30;93.50;;;;;;5011677;28;20223;-61
2023/07/17 00:19:15;;;;;;;7.03;6.43;;;21.40;95.70;;;;;;5011753;28;20175;-59
2023/07/17 00:21:41;;;;;;;5.80;5.27;;;21.40;96.10;;;;;;5013266;28;20273;-61
2023/07/17 00:24:07;;;;;;;5.77;5.33;;;21.40;95.80;;;;;;5014885;28;20665;-61
2023/07/17 00:26:33;;;;;;;5.83;5.33;;;21.30;96.40;;;;;;5003226;28;20270;-60
2023/07/17 00:29:23;;;;;;;5.93;5.43;;;21.30;96.80;;;;;;5015735;28;21016;-61
2023/07/17 00:31:50;;;;;;;6.47;5.87;;;21.20;96.40;;;;;;5015640;28;20175;-61
2023/07/17 00:34:16;;;;;;;7.70;5.33;;;21.10;96.20;;;;;;5015351;28;20416;-59
2023/07/17 00:36:42;;;;;;;6.10;5.60;;;21.10;96.30;;;;;;5015013;28;20483;-61
2023/07/17 00:39:08;;;;;;;7.23;5.80;;;21.00;96.10;;;;;;5015412;28;20953;-61
2023/07/17 00:41:34;;;;;;;7.30;5.50;;;21.00;96.70;;;;;;5014553;28;20186;-61
2023/07/17 00:43:59;;;;;;;8.63;5.90;;;21.00;97.80;;;;;;5015499;28;20194;-61
2023/07/17 00:46:25;;;;;;;6.83;6.23;;;21.00;97.60;;;;;;5014590;28;20179;-60
2023/07/17 00:48:51;;;;;;;6.90;6.30;;;21.00;96.60;;;;;;5015310;28;20258;-61
2023/07/17 00:51:17;;;;;;;6.43;5.83;;;21.00;96.50;;;;;;5014810;28;20761;-59
2023/07/17 00:53:43;;;;;;;8.37;6.00;;;21.00;97.00;;;;;;5013602;28;20430;-61
2023/07/17 00:56:10;;;;;;;6.20;5.73;;;21.00;96.80;;;;;;5014287;28;20433;-61
2023/07/17 00:58:36;;;;;;;6.53;5.80;;;21.00;97.00;;;;;;5014122;28;21230;-61
2023/07/17 01:01:03;;;;;;;7.20;6.53;;;21.00;97.70;;;;;;5015195;28;20406;-61
2023/07/17 01:03:30;;;;;;;8.00;7.20;;;21.00;97.70;;;;;;5014290;28;20454;-60
2023/07/17 01:05:59;;;;;;;8.23;6.03;;;21.00;97.10;;;;;;5015048;28;20414;-61
2023/07/17 01:08:24;;;;;;;6.53;5.93;;;21.00;96.70;;;;;;5014169;28;20411;-60
2023/07/17 01:10:51;;;;;;;5.80;5.30;;;21.10;98.10;;;;;;5014675;28;20444;-60
2023/07/17 01:13:17;;;;;;;6.73;5.43;;;21.10;96.80;;;;;;5014745;28;20179;-60
2023/07/17 01:15:42;;;;;;;5.73;5.13;;;21.10;97.90;;;;;;5024281;28;20444;-60
2023/07/17 01:18:08;;;;;;;7.53;5.80;;;21.20;98.10;;;;;;5034198;28;20183;-61
2023/07/17 01:20:34;;;;;;;6.23;5.63;;;21.10;97.30;;;;;;5033795;28;20622;-61
2023/07/17 01:23:05;;;;;;;5.47;4.97;;;21.00;99.00;;;;;;5033790;28;20428;-61
2023/07/17 01:25:31;;;;;;;6.20;4.73;;;21.00;99.90;;;;;;5032516;28;20289;-60
2023/07/17 01:27:57;;;;;;;4.90;4.50;;;21.00;99.20;;;;;;5032375;28;20441;-61
2023/07/17 01:30:23;;;;;;;5.17;4.67;;;21.10;99.00;;;;;;5033122;28;20464;-60
2023/07/17 01:32:49;;;;;;;5.50;5.00;;;21.10;99.10;;;;;;5034033;28;20417;-61
2023/07/17 01:35:15;;;;;;;5.10;4.70;;;21.10;99.40;;;;;;5034080;28;20257;-61
2023/07/17 01:37:42;;;;;;;4.77;4.33;;;21.10;99.50;;;;;;5033488;28;20730;-61
2023/07/17 01:40:09;;;;;;;6.17;5.53;;;21.10;99.60;;;;;;5034146;28;20560;-61
2023/07/17 01:42:36;;;;;;;6.97;5.90;;;21.20;99.90;;;;;;5033176;28;20900;-61
2023/07/17 01:45:03;;;;;;;5.83;5.27;;;21.20;99.90;;;;;;5034189;28;20483;-61
2023/07/17 01:47:29;;;;;;;5.40;5.00;;;21.20;99.90;;;;;;5033538;28;20410;-61
2023/07/17 01:49:55;;;;;;;5.90;5.40;;;21.20;99.90;;;;;;5033881;28;20471;-61
2023/07/17 01:52:21;;;;;;;5.70;5.13;;;21.20;99.80;;;;;;5032811;28;20429;-59
2023/07/17 01:54:47;;;;;;;5.50;5.00;;;21.20;99.70;;;;;;5031906;28;20654;-60
2023/07/17 01:57:13;;;;;;;5.83;5.23;;;21.20;99.90;;;;;;5033528;28;20645;-60
2023/07/17 01:59:41;;;;;;;5.60;5.20;;;21.30;99.80;;;;;;5032804;28;20668;-61
2023/07/17 02:02:07;;;;;;;5.27;4.97;;;21.20;99.90;;;;;;5032737;28;20437;-61
2023/07/17 02:04:33;;;;;;;5.63;5.10;;;21.20;99.50;;;;;;5032877;28;20906;-60
2023/07/17 02:06:58;;;;;;;6.23;5.00;;;21.20;99.70;;;;;;5033915;28;20209;-61
2023/07/17 02:09:24;;;;;;;4.87;4.47;;;21.10;99.90;;;;;;5032848;28;20178;-58
2023/07/17 02:11:50;;;;;;;5.30;4.80;;;21.10;99.90;;;;;;5033387;28;20173;-60
2023/07/17 02:14:15;;;;;;;5.83;5.33;;;21.10;99.90;;;;;;5033365;28;20182;-61
2023/07/17 02:16:41;;;;;;;5.00;4.57;;;21.00;99.90;;;;;;5032085;28;20542;-60
2023/07/17 02:19:07;;;;;;;5.40;5.00;;;21.00;99.90;;;;;;5015669;28;20185;-61
2023/07/17 02:21:33;;;;;;;6.57;4.67;;;21.00;99.90;;;;;;5032407;28;20178;-61
2023/07/17 02:23:58;;;;;;;5.00;4.30;;;21.00;99.90;;;;;;5032039;28;20284;-61
2023/07/17 02:26:24;;;;;;;5.13;4.73;;;21.00;99.90;;;;;;5032517;28;20686;-59
2023/07/17 02:28:50;;;;;;;4.90;4.50;;;21.00;99.90;;;;;;5032566;28;20545;-61
2023/07/17 02:31:16;;;;;;;5.33;4.83;;;21.00;99.90;;;;;;5033241;28;20664;-61
2023/07/17 02:33:41;;;;;;;5.60;5.10;;;21.00;99.90;;;;;;5032426;28;20937;-61
2023/07/17 02:36:07;;;;;;;5.20;4.80;;;21.00;99.90;;;;;;5033386;28;20819;-61
2023/07/17 02:38:33;;;;;;;5.70;4.70;;;21.10;99.90;;;;;;5032507;28;20180;-60
2023/07/17 02:40:59;;;;;;;4.83;4.43;;;21.10;99.70;;;;;;5033039;28;20257;-61
2023/07/17 02:43:25;;;;;;;4.30;3.90;;;21.10;99.50;;;;;;5031609;28;20182;-59
2023/07/17 02:45:51;;;;;;;4.73;4.40;;;21.10;99.40;;;;;;5032594;28;20443;-61
2023/07/17 02:48:16;;;;;;;4.30;4.00;;;21.00;99.00;;;;;;5033060;28;20669;-61
2023/07/17 02:50:42;;;;;;;4.27;4.07;;;21.00;99.10;;;;;;5032053;28;20171;-60
2023/07/17 02:53:08;;;;;;;4.87;4.47;;;21.00;99.50;;;;;;5031911;28;20186;-61
2023/07/17 02:55:34;;;;;;;5.03;4.63;;;21.00;99.50;;;;;;5031983;28;20251;-60
2023/07/17 02:58:00;;;;;;;4.53;4.20;;;21.00;99.70;;;;;;5032514;28;20904;-61
2023/07/17 03:00:25;;;;;;;5.77;5.23;;;21.00;99.90;;;;;;5032305;28;20208;-59
2023/07/17 03:02:51;;;;;;;6.27;5.77;;;21.00;99.90;;;;;;5032073;28;20181;-60
2023/07/17 03:05:17;;;;;;;4.30;3.90;;;21.00;99.50;;;;;;5032512;28;20198;-61
2023/07/17 03:07:46;;;;;;;4.10;3.73;;;21.00;99.50;;;;;;5031769;28;20181;-61
2023/07/17 03:10:13;;;;;;;5.03;4.10;;;21.00;99.70;;;;;;5032074;28;20946;-61
2023/07/17 03:12:39;;;;;;;5.20;4.63;;;21.00;99.00;;;;;;5031739;28;20417;-61
2023/07/17 03:15:06;;;;;;;4.70;4.40;;;21.00;99.20;;;;;;5031895;28;20605;-61
2023/07/17 03:17:32;;;;;;;5.00;4.60;;;21.00;99.40;;;;;;5031562;28;20854;-60
2023/07/17 03:19:58;;;;;;;5.03;4.63;;;21.00;99.70;;;;;;5032423;28;20750;-61
2023/07/17 03:22:26;;;;;;;4.50;4.20;;;21.00;99.90;;;;;;5031675;28;20500;-60
2023/07/17 03:24:52;;;;;;;4.20;3.90;;;20.90;99.90;;;;;;5030939;28;20460;-61
2023/07/17 03:27:18;;;;;;;4.53;4.13;;;20.90;99.70;;;;;;5032389;28;20409;-61
2023/07/17 03:29:47;;;;;;;4.47;4.17;;;20.90;99.90;;;;;;5031539;28;20543;-61
2023/07/17 03:32:12;;;;;;;4.40;4.10;;;20.80;99.90;;;;;;5032266;28;20458;-61
2023/07/17 03:34:38;;;;;;;4.87;4.47;;;20.80;99.90;;;;;;5031222;28;20507;-61
2023/07/17 03:37:04;;;;;;;4.40;4.10;;;20.80;99.90;;;;;;5032182;28;20645;-61
2023/07/17 03:39:30;;;;;;;4.67;4.27;;;20.90;99.90;;;;;;5031256;28;20534;-60
2023/07/17 03:41:56;;;;;;;4.97;3.90;;;20.80;99.90;;;;;;5031684;28;20413;-61
2023/07/17 03:44:21;;;;;;;7.90;7.10;;;20.80;99.60;;;;;;5014322;28;20538;-61
2023/07/17 03:46:47;;;;;;;6.23;5.73;;;20.80;99.50;;;;;;5031320;28;20769;-61
2023/07/17 03:49:13;;;;;;;6.03;5.30;;;20.80;99.40;;;;;;5014550;28;20173;-61
2023/07/17 03:51:39;;;;;;;3.70;3.40;;;20.80;99.40;;;;;;5031328;28;20182;-61
2023/07/17 03:54:04;;;;;;;6.90;6.40;;;20.70;98.90;;;;;;5030403;28;20194;-60
2023/07/17 03:56:30;;;;;;;3.73;3.43;;;20.60;99.90;;;;;;5033962;28;20178;-59
2023/07/17 03:58:56;;;;;;;5.60;3.40;;;20.60;99.90;;;;;;5036032;28;20173;-61
2023/07/17 04:01:21;;;;;;;3.97;3.77;;;20.70;99.90;;;;;;5035823;28;20182;-61
2023/07/17 04:03:47;;;;;;;5.30;4.90;;;20.70;99.90;;;;;;5035087;28;20202;-61
2023/07/17 04:06:13;;;;;;;5.27;5.03;;;20.70;99.80;;;;;;5035740;28;20739;-61
2023/07/17 04:08:39;;;;;;;5.20;4.90;;;20.70;99.40;;;;;;5035044;28;20170;-61
2023/07/17 04:11:04;;;;;;;4.77;4.37;;;20.70;99.90;;;;;;5035859;28;20249;-62
2023/07/17 04:13:30;;;;;;;6.47;5.97;;;20.70;99.90;;;;;;5035322;28;20174;-59
2023/07/17 04:16:00;;;;;;;4.67;4.27;;;20.60;99.90;;;;;;5034712;28;20792;-61
2023/07/17 04:18:26;;;;;;;3.10;2.83;;;20.60;99.70;;;;;;5018219;28;20224;-61
2023/07/17 04:20:52;;;;;;;3.23;3.00;;;20.60;99.40;;;;;;5017189;28;20947;-62
2023/07/17 04:23:17;;;;;;;3.60;3.23;;;20.60;99.60;;;;;;5034495;28;20182;-61
2023/07/17 04:25:43;;;;;;;4.83;4.60;;;20.60;99.90;;;;;;5034501;28;20190;-61
2023/07/17 04:28:09;;;;;;;3.90;3.60;;;20.60;99.90;;;;;;5035531;28;20198;-61
2023/07/17 04:30:38;;;;;;;5.67;5.37;;;20.60;99.90;;;;;;5034903;28;20181;-61
2023/07/17 04:33:05;;;;;;;4.53;4.13;;;20.60;99.90;;;;;;5035438;28;20519;-61
2023/07/17 04:35:38;;;;;;;5.40;5.00;;;20.60;99.90;;;;;;5035126;28;20753;-58
2023/07/17 04:38:04;;;;;;;4.27;4.03;;;20.50;99.90;;;;;;5017890;28;20398;-61
2023/07/17 04:40:31;;;;;;;3.33;3.13;;;20.50;99.90;;;;;;5034914;28;20497;-59
2023/07/17 04:43:00;;;;;;;5.20;4.80;;;20.50;99.90;;;;;;5034731;28;20545;-61
2023/07/17 04:45:26;;;;;;;5.23;4.77;;;20.50;99.90;;;;;;5034458;28;20472;-60
2023/07/17 04:47:52;;;;;;;3.97;3.67;;;20.60;99.90;;;;;;5035191;28;20423;-61
2023/07/17 04:50:18;;;;;;;3.93;3.63;;;20.60;99.60;;;;;;5035153;28;20474;-62
2023/07/17 04:52:44;;;;;;;5.87;4.33;;;20.50;99.90;;;;;;5033842;28;20425;-61
2023/07/17 04:55:10;;;;;;;4.93;4.63;;;20.50;99.90;;;;;;5034610;28;20178;-61
2023/07/17 04:57:35;;;;;;;4.37;3.97;;;20.50;99.90;;;;;;5034139;28;20201;-61
2023/07/17 05:00:01;;;;;;;9.23;8.40;;;20.50;99.90;;;;;;5035420;28;20174;-61
2023/07/17 05:02:27;;;;;;;6.13;5.63;;;20.50;99.90;;;;;;5034670;28;20179;-61
2023/07/17 05:04:53;;;;;;;3.90;3.60;;;20.60;99.90;;;;;;5034295;28;20678;-61
2023/07/17 05:07:18;;;;;;;6.33;3.77;;;20.50;99.80;;;;;;5034498;28;20178;-60
2023/07/17 05:09:46;;;;;;;3.23;3.00;;;20.60;99.90;;;;;;5033945;28;20175;-61
2023/07/17 05:12:12;;;;;;;3.53;3.23;;;20.50;99.90;;;;;;5034441;28;20186;-60
2023/07/17 05:14:38;;;;;;;4.50;3.67;;;20.50;99.90;;;;;;5032878;28;20433;-60
2023/07/17 05:17:03;;;;;;;3.53;3.20;;;20.60;99.90;;;;;;5034744;28;20166;-60
2023/07/17 05:19:31;;;;;;;3.50;3.30;;;20.50;99.90;;;;;;5017216;28;20190;-61
2023/07/17 05:21:57;;;;;;;2.97;2.77;;;20.50;99.90;;;;;;5035051;28;20181;-60
2023/07/17 05:24:23;;;;;;;3.50;3.03;;;20.50;99.90;;;;;;5034433;28;20951;-60
2023/07/17 05:26:48;;;;;;;3.33;3.13;;;20.50;99.90;;;;;;5033925;28;20182;-60
2023/07/17 05:29:14;;;;;;;3.73;3.43;;;20.40;99.90;;;;;;5035036;28;20182;-61
2023/07/17 05:31:40;;;;;;;4.80;4.40;;;20.40;99.90;;;;;;5033737;28;20177;-60
2023/07/17 05:34:08;;;;;;;7.93;7.23;;;20.40;99.90;;;;;;5034146;28;20175;-60
2023/07/17 05:36:33;;;;;;;4.87;4.30;;;20.30;99.90;;;;;;5033851;28;20503;-60
2023/07/17 05:38:59;;;;;;;4.80;3.30;;;20.20;99.90;;;;;;5034377;28;20448;-60
2023/07/17 05:41:25;;;;;;;5.83;5.43;;;20.20;99.90;;;;;;5034171;28;20185;-61
2023/07/17 05:43:50;;;;;;;3.87;3.57;;;20.20;99.90;;;;;;5032724;28;20566;-60
2023/07/17 05:46:16;;;;;;;6.77;4.80;;;20.20;99.90;;;;;;5034207;28;20278;-61
2023/07/17 05:48:42;;;;;;;3.70;3.20;;;20.20;99.90;;;;;;5033359;28;20626;-60
2023/07/17 05:51:10;;;;;;;5.60;5.20;;;20.20;99.90;;;;;;5034012;28;20182;-61
2023/07/17 05:53:36;;;;;;;4.37;3.30;;;20.30;99.90;;;;;;5033366;28;20204;-60
2023/07/17 05:56:02;;;;;;;3.77;3.47;;;20.30;99.90;;;;;;5031614;28;20823;-61
2023/07/17 05:58:28;;;;;;;6.13;4.30;;;20.30;99.90;;;;;;5033502;28;20185;-61
2023/07/17 06:00:54;;;;;;;4.00;3.70;;;20.30;99.90;;;;;;5033027;28;20421;-61
2023/07/17 06:03:20;;;;;;;5.00;4.50;;;20.30;99.90;;;;;;5033763;28;20252;-60
2023/07/17 06:05:45;;;;;;;5.03;3.50;;;20.40;99.90;;;;;;5033055;28;20213;-60
2023/07/17 06:08:11;;;;;;;5.23;4.83;;;20.40;99.90;;;;;;5032521;28;20194;-61
2023/07/17 06:10:37;;;;;;;7.23;6.53;;;20.40;99.90;;;;;;5033015;28;20236;-60
2023/07/17 06:13:03;;;;;;;6.80;6.10;;;20.40;98.50;;;;;;5015695;28;20178;-67
2023/07/17 06:15:29;;;;;;;4.20;3.80;;;20.40;98.40;;;;;;5033239;28;20464;-63
2023/07/17 06:17:55;;;;;;;5.13;4.73;;;20.40;98.60;;;;;;5015531;28;20508;-63
2023/07/17 06:20:21;;;;;;;4.63;3.77;;;20.50;99.20;;;;;;5032728;28;20670;-62
2023/07/17 06:22:49;;;;;;;5.17;4.67;;;20.50;98.60;;;;;;5014902;28;20265;-62
2023/07/17 06:25:14;;;;;;;5.73;5.07;;;20.50;97.20;;;;;;5015337;28;21067;-62
2023/07/17 06:27:40;;;;;;;5.37;4.23;;;20.50;96.90;;;;;;5032393;28;20178;-61
2023/07/17 06:30:07;;;;;;;5.03;4.30;;;20.50;97.50;;;;;;5033195;28;20170;-63
2023/07/17 06:32:32;;;;;;;4.33;3.70;;;20.60;96.70;;;;;;5027964;28;20623;-63
2023/07/17 06:34:58;;;;;;;6.00;5.43;;;20.60;97.80;;;;;;5029877;28;20460;-64
2023/07/17 06:37:24;;;;;;;5.17;4.60;;;20.80;99.90;;;;;;5032871;28;20210;-64
2023/07/17 06:39:57;;;;;;;4.87;4.47;;;20.90;99.60;;;;;;5069018;28;20647;-63
2023/07/17 06:42:22;;;;;;;4.40;4.00;;;21.00;97.80;;;;;;5069704;28;20452;-61
2023/07/17 06:44:48;;;;;;;5.90;5.37;;;21.00;98.00;;;;;;5069417;28;20719;-64
2023/07/17 06:47:14;;;;;;;6.87;5.50;;;21.20;97.80;;;;;;5071030;28;20197;-62
2023/07/17 06:49:41;;;;;;;54.53;42.70;;;21.20;98.00;;;;;;5069314;28;20169;-64
2023/07/17 06:52:07;;;;;;;22.57;19.13;;;21.40;99.90;;;;;;5069871;28;20175;-60
2023/07/17 06:54:33;;;;;;;8.10;6.80;;;21.60;99.90;;;;;;5070807;28;20445;-60
2023/07/17 06:56:58;;;;;;;8.13;6.47;;;21.70;96.00;;;;;;5072437;28;20937;-61
2023/07/17 06:59:28;;;;;;;7.00;5.87;;;21.80;93.70;;;;;;5068177;28;20652;-61
2023/07/17 07:01:54;;;;;;;5.20;4.70;;;21.90;96.40;;;;;;5070330;28;20177;-65
2023/07/17 07:04:20;;;;;;;8.20;6.37;;;22.00;92.10;;;;;;5076310;28;20415;-69
2023/07/17 07:06:46;;;;;;;6.17;4.50;;;22.00;92.00;;;;;;5088561;28;20425;-68
2023/07/17 07:09:12;;;;;;;4.83;4.33;;;21.90;91.40;;;;;;5089367;28;20179;-67
2023/07/17 07:11:38;;;;;;;9.40;8.27;;;21.80;91.10;;;;;;5072243;28;20169;-61
2023/07/17 07:14:04;;;;;;;8.60;7.30;;;21.80;91.20;;;;;;5070798;28;20510;-67
2023/07/17 07:16:30;;;;;;;6.70;5.97;;;21.70;91.70;;;;;;5068445;28;20505;-67
2023/07/17 07:18:56;;;;;;;9.33;7.07;;;21.70;91.70;;;;;;5068651;28;20540;-68
2023/07/17 07:21:21;;;;;;;7.80;7.10;;;21.70;91.90;;;;;;5085055;28;20180;-69
2023/07/17 07:23:47;;;;;;;68.57;54.57;;;21.70;91.60;;;;;;5088298;28;20165;-69
2023/07/17 07:26:13;;;;;;;249.97;186.17;;;21.70;91.90;;;;;;5088767;28;20210;-69
2023/07/17 07:28:38;;;;;;;26.17;21.70;;;21.70;91.80;;;;;;5075620;28;20185;-69
2023/07/17 07:31:04;;;;;;;9.43;6.13;;;21.70;91.60;;;;;;5075348;28;20168;-69
2023/07/17 07:33:30;;;;;;;7.10;5.67;;;21.60;91.80;;;;;;5075541;28;20411;-63
2023/07/17 07:35:56;;;;;;;6.90;6.20;;;21.70;92.00;;;;;;5068626;28;20177;-62
2023/07/17 07:38:22;;;;;;;9.70;8.70;;;21.70;92.60;;;;;;5068870;28;20555;-66
2023/07/17 07:40:48;;;;;;;7.23;5.70;;;21.80;92.90;;;;;;5068068;28;20229;-66
2023/07/17 07:43:13;;;;;;;10.30;8.10;;;21.80;91.50;;;;;;5068651;28;20169;-64
2023/07/17 07:45:39;;;;;;;11.03;9.07;;;21.90;91.80;;;;;;5086427;28;20464;-64
2023/07/17 07:48:05;;;;;;;29.20;22.33;;;21.90;92.00;;;;;;5088210;28;20168;-64
2023/07/17 07:50:31;;;;;;;15.93;13.50;;;22.10;95.10;;;;;;5079968;28;20172;-63
2023/07/17 07:52:57;;;;;;;19.07;14.13;;;22.30;94.70;;;;;;5075128;28;20403;-63
2023/07/17 07:55:23;;;;;;;10.97;7.20;;;22.30;92.90;;;;;;5074035;28;20169;-63
2023/07/17 07:57:52;;;;;;;7.33;5.33;;;22.50;93.00;;;;;;5073558;28;20229;-65
2023/07/17 08:00:17;;;;;;;5.73;5.23;;;22.70;91.00;;;;;;5075221;28;20517;-62
2023/07/17 08:02:43;;;;;;;8.17;6.50;;;22.70;87.10;;;;;;5068973;28;20413;-62
2023/07/17 08:05:10;;;;;;;80.47;62.43;;;22.70;88.30;;;;;;5054538;28;20218;-62
2023/07/17 08:07:35;;;;;;;36.47;30.20;;;22.70;87.80;;;;;;5054589;28;20186;-63
2023/07/17 08:10:01;;;;;;;16.93;15.20;;;22.70;89.70;;;;;;5052889;28;21010;-62
2023/07/17 08:12:27;;;;;;;14.23;12.67;;;22.80;90.00;;;;;;5054898;28;20637;-63
2023/07/17 08:14:53;;;;;;;8.83;8.10;;;22.80;89.90;;;;;;5054471;28;20404;-62
2023/07/17 08:17:19;;;;;;;6.80;6.20;;;22.90;88.20;;;;;;5054512;28;20599;-63
2023/07/17 08:19:45;;;;;;;7.87;5.80;;;23.10;86.70;;;;;;5054276;28;20501;-62
2023/07/17 08:22:10;;;;;;;8.13;7.33;;;23.10;86.20;;;;;;5054801;28;20188;-63
2023/07/17 08:24:37;;;;;;;8.00;5.23;;;23.00;88.40;;;;;;5055136;28;20260;-63
2023/07/17 08:27:03;;;;;;;43.30;34.63;;;23.00;84.10;;;;;;5054097;28;21121;-62
2023/07/17 08:29:28;;;;;;;56.73;49.77;;;23.00;85.20;;;;;;5054720;28;20410;-62
2023/07/17 08:31:54;;;;;;;6.13;5.53;;;23.00;85.70;;;;;;5053800;28;20174;-62
2023/07/17 08:34:23;;;;;;;14.83;13.40;;;22.90;84.20;;;;;;5053548;28;20607;-64
2023/07/17 08:36:49;;;;;;;6.50;5.27;;;23.00;86.90;;;;;;5054031;28;20553;-63
2023/07/17 08:39:14;;;;;;;9.90;8.10;;;23.00;86.70;;;;;;5053903;28;20542;-64
2023/07/17 08:41:49;;;;;;;7.27;6.40;;;23.10;88.00;;;;;;5053313;28;20436;-63
2023/07/17 08:44:18;;;;;;;9.17;8.37;;;23.30;86.90;;;;;;5054704;28;20167;-66
2023/07/17 08:46:47;;;;;;;8.13;7.37;;;23.30;85.70;;;;;;5051745;28;20847;-63
2023/07/17 08:49:18;;;;;;;6.70;5.47;;;23.30;85.70;;;;;;5036382;28;20487;-63
2023/07/17 08:51:46;;;;;;;6.70;5.67;;;23.20;83.30;;;;;;5054411;28;20388;-64
2023/07/17 08:54:15;;;;;;;7.83;7.03;;;23.20;86.00;;;;;;5054344;28;20388;-63
2023/07/17 08:56:43;;;;;;;6.30;5.70;;;23.30;87.00;;;;;;5054299;28;20409;-63
2023/07/17 08:59:10;;;;;;;5.83;5.23;;;23.50;88.10;;;;;;5053399;28;20448;-64
2023/07/17 09:01:37;;;;;;;4.97;4.50;;;23.60;85.60;;;;;;5052820;28;20415;-64
2023/07/17 09:04:07;;;;;;;8.13;7.40;;;23.60;83.70;;;;;;5053072;28;20420;-63
2023/07/17 09:06:32;;;;;;;6.83;5.37;;;23.50;81.50;;;;;;5053668;28;20420;-63
2023/07/17 09:08:59;;;;;;;5.40;4.90;;;23.30;82.00;;;;;;5053412;28;20471;-64
2023/07/17 09:11:25;;;;;;;5.47;4.97;;;23.30;85.30;;;;;;5053842;28;20178;-64
2023/07/17 09:13:50;;;;;;;8.40;7.57;;;23.60;84.70;;;;;;5053351;28;20405;-62
2023/07/17 09:16:21;;;;;;;6.80;6.10;;;23.70;81.70;;;;;;5053823;28;20173;-63
2023/07/17 09:18:47;;;;;;;20.73;14.97;;;23.70;83.60;;;;;;5052986;28;20185;-63
2023/07/17 09:21:14;;;;;;;24.37;21.30;;;23.80;83.80;;;;;;5053633;28;20458;-62
2023/07/17 09:23:46;;;;;;;18.63;16.13;;;23.80;81.30;;;;;;5053983;28;20415;-62
2023/07/17 09:26:19;;;;;;;5.00;4.60;;;23.70;81.50;;;;;;5051811;28;20534;-62
2023/07/17 09:28:56;;;;;;;6.47;4.67;;;23.60;81.60;;;;;;5053614;28;20564;-62
2023/07/17 09:31:27;;;;;;;7.47;6.67;;;23.60;80.80;;;;;;5053507;28;20388;-62
2023/07/17 09:33:58;;;;;;;6.73;6.03;;;23.50;79.00;;;;;;5052969;28;20412;-62
2023/07/17 09:36:24;;;;;;;6.07;5.00;;;23.50;80.40;;;;;;5053108;28;20940;-62
2023/07/17 09:38:55;;;;;;;6.43;5.93;;;23.50;81.00;;;;;;5050324;28;20625;-62
2023/07/17 09:41:28;;;;;;;7.07;6.37;;;23.50;79.70;;;;;;5053591;28;20245;-62
2023/07/17 09:43:58;;;;;;;6.93;5.40;;;23.60;81.00;;;;;;5053101;28;20890;-62
2023/07/17 09:46:26;;;;;;;6.93;6.43;;;23.70;81.40;;;;;;5053307;28;20408;-62
2023/07/17 09:48:52;;;;;;;6.13;5.60;;;23.80;81.50;;;;;;5052603;28;20415;-63
2023/07/17 09:51:19;;;;;;;6.83;4.70;;;23.80;82.70;;;;;;5052906;28;20491;-62
2023/07/17 09:53:45;;;;;;;5.03;4.53;;;23.90;81.40;;;;;;5051580;28;20645;-62
2023/07/17 09:56:14;;;;;;;4.50;4.10;;;24.10;80.50;;;;;;5052454;28;20527;-62
2023/07/17 09:58:44;;;;;;;5.77;4.90;;;24.20;80.80;;;;;;5058116;28;20205;-62
2023/07/17 10:01:14;;;;;;;4.97;4.57;;;24.20;78.00;;;;;;5063192;28;20426;-61
2023/07/17 10:03:44;;;;;;;5.80;5.20;;;24.10;80.30;;;;;;5071327;28;20442;-60
2023/07/17 10:06:11;;;;;;;8.33;6.13;;;24.00;80.00;;;;;;5052573;28;20424;-60
2023/07/17 10:08:39;;;;;;;5.83;5.33;;;24.10;81.40;;;;;;5052817;28;20443;-61
2023/07/17 10:11:05;;;;;;;42.87;26.53;;;24.20;81.60;;;;;;5052053;28;20745;-60
2023/07/17 10:13:31;;;;;;;16.73;11.70;;;24.30;81.30;;;;;;5051380;28;20503;-60
2023/07/17 10:15:57;;;;;;;9.23;5.83;;;24.40;81.20;;;;;;5051948;28;20256;-60
2023/07/17 10:18:24;;;;;;;7.23;4.40;;;24.50;79.30;;;;;;5052418;28;20794;-60
2023/07/17 10:20:54;;;;;;;4.87;4.37;;;24.60;78.90;;;;;;5052059;28;20455;-58
2023/07/17 10:23:24;;;;;;;5.47;4.93;;;24.70;80.00;;;;;;5052382;28;20720;-57
2023/07/17 10:25:51;;;;;;;5.00;4.60;;;24.80;80.50;;;;;;5052018;28;20413;-57
2023/07/17 10:28:30;;;;;;;6.70;5.43;;;24.80;79.30;;;;;;5052603;28;20415;-58
2023/07/17 10:31:04;;;;;;;6.90;6.30;;;24.70;80.80;;;;;;5051278;28;20431;-57
2023/07/17 10:33:36;;;;;;;5.50;5.00;;;24.60;80.10;;;;;;5052487;28;20413;-58
2023/07/17 10:36:02;;;;;;;5.67;4.87;;;24.70;80.00;;;;;;5050261;28;20396;-57
2023/07/17 10:38:38;;;;;;;5.20;4.70;;;24.50;78.40;;;;;;5050623;28;20466;-57
2023/07/17 10:41:10;;;;;;;5.43;4.73;;;24.50;77.50;;;;;;5051816;28;20176;-57
2023/07/17 10:43:36;;;;;;;5.40;4.90;;;24.40;79.40;;;;;;5052225;28;20405;-58
2023/07/17 10:46:09;;;;;;;6.33;4.40;;;24.20;75.40;;;;;;5051939;28;20887;-58
2023/07/17 10:48:35;;;;;;;4.33;3.90;;;24.30;76.40;;;;;;5052558;28;20404;-58
2023/07/17 10:51:01;;;;;;;405.50;318.80;;;24.30;79.30;;;;;;5052038;28;20396;-58
2023/07/17 10:53:27;;;;;;;29.40;22.80;;;24.40;75.40;;;;;;5052112;28;20248;-58
2023/07/17 10:55:53;;;;;;;5.33;4.47;;;24.50;74.40;;;;;;5051451;28;20173;-58
2023/07/17 10:58:20;;;;;;;4.97;4.47;;;24.50;73.70;;;;;;5053424;28;20592;-58
2023/07/17 11:00:46;;;;;;;7.43;5.77;;;24.60;74.60;;;;;;5051884;28;20404;-57
2023/07/17 11:03:17;;;;;;;6.30;5.90;;;24.70;76.00;;;;;;5050545;28;20849;-58
2023/07/17 11:05:45;;;;;;;6.13;5.53;;;24.70;73.20;;;;;;5051728;28;20424;-58
2023/07/17 11:08:12;;;;;;;7.33;6.63;;;24.60;76.20;;;;;;5051586;28;20430;-58
2023/07/17 11:10:43;;;;;;;6.60;5.70;;;24.60;75.90;;;;;;5052312;28;20404;-58
2023/07/17 11:13:10;;;;;;;7.70;6.60;;;24.60;76.10;;;;;;5051664;28;20501;-62
2023/07/17 11:15:37;;;;;;;4.63;4.20;;;24.60;78.70;;;;;;5055451;28;20560;-58
2023/07/17 11:18:05;;;;;;;6.17;4.60;;;24.60;78.10;;;;;;5051450;28;20456;-58
2023/07/17 11:20:32;;;;;;;4.90;4.43;;;24.50;76.10;;;;;;5060707;28;20418;-58
2023/07/17 11:22:58;;;;;;;5.40;4.93;;;24.50;76.90;;;;;;5064077;28;20895;-60
2023/07/17 11:25:26;;;;;;;6.60;5.23;;;24.50;75.20;;;;;;5054721;28;20558;-60
2023/07/17 11:27:53;;;;;;;5.00;4.30;;;24.40;76.70;;;;;;5056611;28;20420;-60
2023/07/17 11:30:30;;;;;;;4.47;4.07;;;24.30;77.00;;;;;;5055502;28;20946;-60
2023/07/17 11:32:58;;;;;;;6.27;4.43;;;24.20;76.80;;;;;;5053190;28;20435;-60
2023/07/17 11:35:50;;;;;;;6.17;5.67;;;24.10;76.00;;;;;;5055630;28;20466;-59
2023/07/17 11:38:18;;;;;;;23.33;18.47;;;24.00;77.10;;;;;;5034825;28;20471;-60
2023/07/17 11:41:03;;;;;;;204.50;147.27;;;24.00;78.30;;;;;;5035763;28;20405;-60
2023/07/17 11:43:32;;;;;;;8.03;7.23;;;24.10;77.60;;;;;;5050029;28;20744;-66
2023/07/17 11:46:02;;;;;;;4.87;4.33;;;24.30;76.30;;;;;;5054974;28;20407;-60
2023/07/17 11:48:36;;;;;;;6.53;5.00;;;24.40;75.10;;;;;;5055514;28;20433;-60
2023/07/17 11:51:03;;;;;;;5.57;4.50;;;24.40;73.00;;;;;;5054889;28;20400;-60
2023/07/17 11:53:29;;;;;;;5.73;4.40;;;24.30;75.50;;;;;;5055190;28;20771;-63
2023/07/17 11:55:55;;;;;;;5.20;4.80;;;24.30;74.40;;;;;;5056414;28;20433;-63
2023/07/17 11:58:26;;;;;;;5.10;4.70;;;24.20;75.40;;;;;;5055319;28;20728;-63
2023/07/17 12:00:54;;;;;;;5.70;5.20;;;24.10;76.80;;;;;;5055370;28;20415;-62
2023/07/17 12:03:20;;;;;;;7.17;5.77;;;23.90;77.20;;;;;;5054589;28;20404;-63
2023/07/17 12:05:46;;;;;;;6.07;5.43;;;23.80;76.00;;;;;;5055235;28;20439;-60
2023/07/17 12:08:12;;;;;;;4.93;4.53;;;23.80;76.40;;;;;;5054399;28;20444;-60
2023/07/17 12:10:38;;;;;;;6.37;4.47;;;23.70;76.50;;;;;;5055118;28;20223;-60
2023/07/17 12:13:04;;;;;;;8.40;5.40;;;23.60;76.20;;;;;;5054458;28;20411;-60
2023/07/17 12:15:31;;;;;;;7.07;4.93;;;23.60;77.10;;;;;;5055079;28;20894;-60
2023/07/17 12:17:58;;;;;;;5.47;4.53;;;23.70;78.20;;;;;;5054240;28;20408;-61
2023/07/17 12:20:27;;;;;;;5.50;4.97;;;23.60;77.20;;;;;;5054894;28;20393;-60
2023/07/17 12:22:54;;;;;;;6.73;5.93;;;23.60;76.70;;;;;;5054790;28;20400;-60
2023/07/17 12:25:21;;;;;;;5.67;5.10;;;23.60;78.00;;;;;;5053531;28;20416;-60
2023/07/17 12:27:47;;;;;;;5.27;4.77;;;23.60;76.80;;;;;;5054506;28;20729;-60
2023/07/17 12:30:14;;;;;;;6.90;5.60;;;23.80;77.50;;;;;;5054116;28;20392;-59
2023/07/17 12:32:41;;;;;;;7.33;6.53;;;23.80;78.40;;;;;;5054348;28;20415;-60
2023/07/17 12:35:08;;;;;;;7.10;6.20;;;23.80;79.20;;;;;;5054064;28;20398;-60
2023/07/17 12:37:34;;;;;;;6.83;5.23;;;23.90;81.50;;;;;;5053997;28;20419;-58
2023/07/17 12:40:00;;;;;;;7.87;5.30;;;24.00;80.10;;;;;;5053942;28;20443;-60
2023/07/17 12:42:26;;;;;;;6.37;5.87;;;24.00;80.40;;;;;;5054781;28;20902;-60
2023/07/17 12:44:52;;;;;;;5.10;4.70;;;24.00;79.30;;;;;;5054421;28;20166;-60